sensor_id;sensor_type;location;lat;lon;timestamp;pressure;altitude;pressure_sealevel;temperature;humidity
80424;BME280;69765;47.668;19.326;2023-07-22T00:00:40;98693.66;;;16.89;95.26
80424;BME280;69765;47.668;19.326;2023-07-22T00:03:42;98704.06;;;16.90;97.02
80424;BME280;69765;47.668;19.326;2023-07-22T00:06:45;98717.22;;;16.96;96.98
80424;BME280;69765;47.668;19.326;2023-07-22T00:09:48;98713.09;;;17.03;96.18
80424;BME280;69765;47.668;19.326;2023-07-22T00:12:52;98712.19;;;17.01;95.93
80424;BME280;69765;47.668;19.326;2023-07-22T00:15:55;98705.47;;;16.80;96.57
80424;BME280;69765;47.668;19.326;2023-07-22T00:18:57;98714.00;;;16.78;96.96
80424;BME280;69765;47.668;19.326;2023-07-22T00:22:00;98720.84;;;16.76;96.98
80424;BME280;69765;47.668;19.326;2023-07-22T00:25:02;98697.38;;;16.71;96.83
80424;BME280;69765;47.668;19.326;2023-07-22T00:28:05;98717.19;;;16.71;95.71
80424;BME280;69765;47.668;19.326;2023-07-22T00:31:07;98713.00;;;16.74;96.46
80424;BME280;69765;47.668;19.326;2023-07-22T00:34:10;98706.09;;;16.73;95.46
80424;BME280;69765;47.668;19.326;2023-07-22T00:37:13;98706.13;;;16.75;95.91
80424;BME280;69765;47.668;19.326;2023-07-22T00:40:15;98700.06;;;16.74;95.81
80424;BME280;69765;47.668;19.326;2023-07-22T00:43:17;98694.66;;;16.68;95.89
80424;BME280;69765;47.668;19.326;2023-07-22T00:46:20;98688.97;;;16.53;95.84
80424;BME280;69765;47.668;19.326;2023-07-22T00:49:23;98700.63;;;16.42;95.36
80424;BME280;69765;47.668;19.326;2023-07-22T00:52:28;98693.66;;;16.39;96.72
80424;BME280;69765;47.668;19.326;2023-07-22T00:55:33;98709.56;;;16.50;96.39
80424;BME280;69765;47.668;19.326;2023-07-22T00:58:35;98725.22;;;16.54;96.75
80424;BME280;69765;47.668;19.326;2023-07-22T01:01:37;98713.97;;;16.52;97.36
80424;BME280;69765;47.668;19.326;2023-07-22T01:04:40;98716.16;;;16.66;97.73
80424;BME280;69765;47.668;19.326;2023-07-22T01:07:43;98721.59;;;16.73;97.78
80424;BME280;69765;47.668;19.326;2023-07-22T01:10:46;98725.72;;;16.68;98.21
80424;BME280;69765;47.668;19.326;2023-07-22T01:13:48;98724.19;;;16.73;98.57
80424;BME280;69765;47.668;19.326;2023-07-22T01:16:50;98712.66;;;16.65;98.65
80424;BME280;69765;47.668;19.326;2023-07-22T01:19:53;98724.78;;;16.66;99.39
80424;BME280;69765;47.668;19.326;2023-07-22T01:22:56;98744.94;;;16.75;99.02
80424;BME280;69765;47.668;19.326;2023-07-22T01:25:58;98740.81;;;16.80;98.48
80424;BME280;69765;47.668;19.326;2023-07-22T01:29:02;98747.03;;;16.85;97.77
80424;BME280;69765;47.668;19.326;2023-07-22T01:32:05;98748.75;;;16.84;98.58
80424;BME280;69765;47.668;19.326;2023-07-22T01:35:08;98759.25;;;16.89;98.41
80424;BME280;69765;47.668;19.326;2023-07-22T01:38:11;98751.47;;;16.89;98.05
80424;BME280;69765;47.668;19.326;2023-07-22T01:41:13;98758.19;;;16.84;98.00
80424;BME280;69765;47.668;19.326;2023-07-22T01:44:15;98758.03;;;16.79;98.23
80424;BME280;69765;47.668;19.326;2023-07-22T01:47:18;98753.06;;;16.85;98.63
80424;BME280;69765;47.668;19.326;2023-07-22T01:50:20;98760.69;;;16.81;99.08
80424;BME280;69765;47.668;19.326;2023-07-22T01:53:22;98773.66;;;16.82;98.83
80424;BME280;69765;47.668;19.326;2023-07-22T01:56:25;98764.91;;;16.79;98.59
80424;BME280;69765;47.668;19.326;2023-07-22T01:59:28;98777.84;;;16.79;98.93
80424;BME280;69765;47.668;19.326;2023-07-22T02:02:30;98792.31;;;16.74;98.16
80424;BME280;69765;47.668;19.326;2023-07-22T02:05:33;98794.88;;;16.72;99.42
80424;BME280;69765;47.668;19.326;2023-07-22T02:08:35;98789.38;;;16.65;100.00
80424;BME280;69765;47.668;19.326;2023-07-22T02:11:39;98792.47;;;16.54;100.00
80424;BME280;69765;47.668;19.326;2023-07-22T02:14:41;98790.53;;;16.49;100.00
80424;BME280;69765;47.668;19.326;2023-07-22T02:17:43;98787.78;;;16.44;100.00
80424;BME280;69765;47.668;19.326;2023-07-22T02:20:46;98793.63;;;16.39;100.00
80424;BME280;69765;47.668;19.326;2023-07-22T02:23:48;98800.19;;;16.30;100.00
80424;BME280;69765;47.668;19.326;2023-07-22T02:26:50;98806.06;;;16.26;100.00
80424;BME280;69765;47.668;19.326;2023-07-22T02:29:53;98818.94;;;16.25;100.00
80424;BME280;69765;47.668;19.326;2023-07-22T02:32:56;98807.72;;;16.24;100.00
80424;BME280;69765;47.668;19.326;2023-07-22T02:35:58;98814.88;;;16.31;100.00
80424;BME280;69765;47.668;19.326;2023-07-22T02:39:00;98824.25;;;16.28;100.00
80424;BME280;69765;47.668;19.326;2023-07-22T02:42:03;98826.81;;;16.28;100.00
80424;BME280;69765;47.668;19.326;2023-07-22T02:45:06;98837.03;;;16.25;100.00
80424;BME280;69765;47.668;19.326;2023-07-22T02:48:10;98834.81;;;16.34;100.00
80424;BME280;69765;47.668;19.326;2023-07-22T02:51:12;98834.09;;;16.38;100.00
80424;BME280;69765;47.668;19.326;2023-07-22T02:54:15;98844.63;;;16.43;100.00
80424;BME280;69765;47.668;19.326;2023-07-22T02:57:17;98841.25;;;16.45;100.00
80424;BME280;69765;47.668;19.326;2023-07-22T03:00:20;98841.94;;;16.41;100.00
80424;BME280;69765;47.668;19.326;2023-07-22T03:03:28;98839.19;;;16.36;100.00
80424;BME280;69765;47.668;19.326;2023-07-22T03:06:31;98835.72;;;16.36;100.00
80424;BME280;69765;47.668;19.326;2023-07-22T03:09:33;98829.56;;;16.32;100.00
80424;BME280;69765;47.668;19.326;2023-07-22T03:12:36;98834.72;;;16.32;100.00
80424;BME280;69765;47.668;19.326;2023-07-22T03:15:38;98842.38;;;16.29;99.77
80424;BME280;69765;47.668;19.326;2023-07-22T03:18:41;98844.00;;;16.27;100.00
80424;BME280;69765;47.668;19.326;2023-07-22T03:21:45;98836.34;;;16.29;100.00
80424;BME280;69765;47.668;19.326;2023-07-22T03:24:47;98847.03;;;16.38;100.00
80424;BME280;69765;47.668;19.326;2023-07-22T03:27:50;98831.25;;;16.32;100.00
80424;BME280;69765;47.668;19.326;2023-07-22T03:30:52;98833.97;;;16.35;100.00
80424;BME280;69765;47.668;19.326;2023-07-22T03:33:55;98839.97;;;16.34;100.00
80424;BME280;69765;47.668;19.326;2023-07-22T03:36:57;98840.06;;;16.37;100.00
80424;BME280;69765;47.668;19.326;2023-07-22T03:40:00;98836.91;;;16.44;100.00
80424;BME280;69765;47.668;19.326;2023-07-22T03:43:03;98835.38;;;16.49;100.00
80424;BME280;69765;47.668;19.326;2023-07-22T03:46:05;98844.19;;;16.54;99.98
80424;BME280;69765;47.668;19.326;2023-07-22T03:49:07;98844.47;;;16.62;99.19
80424;BME280;69765;47.668;19.326;2023-07-22T03:52:10;98838.25;;;16.57;100.00
80424;BME280;69765;47.668;19.326;2023-07-22T03:55:16;98850.69;;;16.67;100.00
80424;BME280;69765;47.668;19.326;2023-07-22T03:58:19;98844.00;;;16.72;99.95
80424;BME280;69765;47.668;19.326;2023-07-22T04:01:21;98847.31;;;16.70;100.00
80424;BME280;69765;47.668;19.326;2023-07-22T04:04:23;98851.91;;;16.75;100.00
80424;BME280;69765;47.668;19.326;2023-07-22T04:07:26;98855.53;;;16.80;99.67
80424;BME280;69765;47.668;19.326;2023-07-22T04:10:28;98859.00;;;16.81;99.73
80424;BME280;69765;47.668;19.326;2023-07-22T04:13:30;98861.50;;;16.79;100.00
80424;BME280;69765;47.668;19.326;2023-07-22T04:16:33;98866.66;;;16.79;99.98
80424;BME280;69765;47.668;19.326;2023-07-22T04:19:36;98868.28;;;16.76;100.00
80424;BME280;69765;47.668;19.326;2023-07-22T04:22:39;98865.38;;;16.68;100.00
80424;BME280;69765;47.668;19.326;2023-07-22T04:25:45;98872.59;;;16.75;100.00
80424;BME280;69765;47.668;19.326;2023-07-22T04:28:47;98877.44;;;16.90;100.00
80424;BME280;69765;47.668;19.326;2023-07-22T04:31:49;98874.94;;;16.93;100.00
80424;BME280;69765;47.668;19.326;2023-07-22T04:34:52;98875.09;;;16.98;99.65
80424;BME280;69765;47.668;19.326;2023-07-22T04:37:55;98874.19;;;16.96;99.39
80424;BME280;69765;47.668;19.326;2023-07-22T04:40:57;98864.69;;;16.96;98.92
80424;BME280;69765;47.668;19.326;2023-07-22T04:43:59;98872.75;;;17.04;98.69
80424;BME280;69765;47.668;19.326;2023-07-22T04:47:01;98875.44;;;17.07;98.60
80424;BME280;69765;47.668;19.326;2023-07-22T04:50:05;98871.69;;;17.23;98.02
80424;BME280;69765;47.668;19.326;2023-07-22T04:53:12;98876.88;;;17.23;98.92
80424;BME280;69765;47.668;19.326;2023-07-22T04:56:17;98875.09;;;17.22;98.55
80424;BME280;69765;47.668;19.326;2023-07-22T04:59:19;98875.94;;;17.46;97.41
80424;BME280;69765;47.668;19.326;2023-07-22T05:02:22;98871.25;;;17.36;97.43
80424;BME280;69765;47.668;19.326;2023-07-22T05:05:24;98873.34;;;17.46;96.55
80424;BME280;69765;47.668;19.326;2023-07-22T05:08:26;98877.44;;;17.65;96.92
80424;BME280;69765;47.668;19.326;2023-07-22T05:11:29;98881.28;;;17.76;96.24
80424;BME280;69765;47.668;19.326;2023-07-22T05:14:31;98876.38;;;17.84;95.76
80424;BME280;69765;47.668;19.326;2023-07-22T05:17:34;98870.59;;;17.93;94.59
80424;BME280;69765;47.668;19.326;2023-07-22T05:20:38;98874.66;;;17.84;96.07
80424;BME280;69765;47.668;19.326;2023-07-22T05:23:40;98876.97;;;18.02;96.22
80424;BME280;69765;47.668;19.326;2023-07-22T05:26:42;98885.63;;;18.03;95.77
80424;BME280;69765;47.668;19.326;2023-07-22T05:30:00;98887.94;;;18.22;95.83
80424;BME280;69765;47.668;19.326;2023-07-22T05:33:02;98882.47;;;18.13;94.82
80424;BME280;69765;47.668;19.326;2023-07-22T05:36:05;98889.47;;;18.44;94.58
80424;BME280;69765;47.668;19.326;2023-07-22T05:39:07;98887.66;;;18.69;92.22
80424;BME280;69765;47.668;19.326;2023-07-22T05:42:10;98888.44;;;18.68;92.60
80424;BME280;69765;47.668;19.326;2023-07-22T05:45:12;98886.53;;;18.90;92.22
80424;BME280;69765;47.668;19.326;2023-07-22T05:48:17;98896.91;;;18.90;90.44
80424;BME280;69765;47.668;19.326;2023-07-22T05:51:19;98898.22;;;19.38;88.64
80424;BME280;69765;47.668;19.326;2023-07-22T05:54:22;98892.50;;;19.83;84.94
80424;BME280;69765;47.668;19.326;2023-07-22T05:57:24;98903.59;;;20.89;81.32
80424;BME280;69765;47.668;19.326;2023-07-22T06:00:26;98895.66;;;21.74;77.20
80424;BME280;69765;47.668;19.326;2023-07-22T06:03:29;98903.81;;;22.48;74.10
80424;BME280;69765;47.668;19.326;2023-07-22T06:06:31;98910.69;;;22.43;72.59
80424;BME280;69765;47.668;19.326;2023-07-22T06:09:34;98916.13;;;23.24;69.91
80424;BME280;69765;47.668;19.326;2023-07-22T06:12:37;98917.19;;;24.37;67.25
80424;BME280;69765;47.668;19.326;2023-07-22T06:15:40;98918.50;;;25.11;62.17
80424;BME280;69765;47.668;19.326;2023-07-22T06:18:43;98920.28;;;25.13;62.58
80424;BME280;69765;47.668;19.326;2023-07-22T06:21:45;98908.94;;;25.23;60.70
80424;BME280;69765;47.668;19.326;2023-07-22T06:24:47;98916.78;;;25.14;61.56
80424;BME280;69765;47.668;19.326;2023-07-22T06:27:50;98911.91;;;24.29;64.02
80424;BME280;69765;47.668;19.326;2023-07-22T06:30:52;98922.06;;;23.09;68.05
80424;BME280;69765;47.668;19.326;2023-07-22T06:33:55;98918.97;;;22.74;70.93
80424;BME280;69765;47.668;19.326;2023-07-22T06:36:57;98904.44;;;22.92;69.98
80424;BME280;69765;47.668;19.326;2023-07-22T06:39:59;98905.97;;;22.80;68.89
80424;BME280;69765;47.668;19.326;2023-07-22T06:43:01;98909.69;;;22.95;69.38
80424;BME280;69765;47.668;19.326;2023-07-22T06:46:04;98911.22;;;22.81;70.57
80424;BME280;69765;47.668;19.326;2023-07-22T06:49:06;98908.28;;;22.58;70.69
80424;BME280;69765;47.668;19.326;2023-07-22T06:52:09;98907.88;;;22.90;71.53
80424;BME280;69765;47.668;19.326;2023-07-22T06:55:11;98906.59;;;23.29;69.10
80424;BME280;69765;47.668;19.326;2023-07-22T06:58:15;98920.81;;;23.54;68.90
80424;BME280;69765;47.668;19.326;2023-07-22T07:01:18;98925.44;;;23.76;68.26
80424;BME280;69765;47.668;19.326;2023-07-22T07:04:20;98925.56;;;23.93;66.79
80424;BME280;69765;47.668;19.326;2023-07-22T07:07:22;98918.66;;;24.01;65.46
80424;BME280;69765;47.668;19.326;2023-07-22T07:10:25;98933.72;;;24.30;65.81
80424;BME280;69765;47.668;19.326;2023-07-22T07:13:28;98940.88;;;24.49;65.86
80424;BME280;69765;47.668;19.326;2023-07-22T07:16:31;98927.09;;;24.81;64.88
80424;BME280;69765;47.668;19.326;2023-07-22T07:19:34;98930.63;;;24.90;65.37
80424;BME280;69765;47.668;19.326;2023-07-22T07:22:36;98938.69;;;25.35;60.11
80424;BME280;69765;47.668;19.326;2023-07-22T07:25:39;98933.34;;;25.10;59.68
80424;BME280;69765;47.668;19.326;2023-07-22T07:28:41;98937.00;;;25.58;59.52
80424;BME280;69765;47.668;19.326;2023-07-22T07:31:43;98950.06;;;25.38;60.69
80424;BME280;69765;47.668;19.326;2023-07-22T07:34:46;98953.59;;;25.54;59.68
80424;BME280;69765;47.668;19.326;2023-07-22T07:37:48;98945.81;;;26.00;58.99
80424;BME280;69765;47.668;19.326;2023-07-22T07:40:56;98960.72;;;26.04;59.13
80424;BME280;69765;47.668;19.326;2023-07-22T07:43:59;98949.34;;;26.59;57.13
80424;BME280;69765;47.668;19.326;2023-07-22T07:47:01;98961.47;;;27.02;57.03
80424;BME280;69765;47.668;19.326;2023-07-22T07:50:04;98971.06;;;27.22;57.37
80424;BME280;69765;47.668;19.326;2023-07-22T07:53:07;98971.00;;;27.39;54.68
80424;BME280;69765;47.668;19.326;2023-07-22T07:56:10;98966.41;;;27.82;53.44
80424;BME280;69765;47.668;19.326;2023-07-22T07:59:12;98982.25;;;27.65;54.24
80424;BME280;69765;47.668;19.326;2023-07-22T08:02:15;98992.16;;;27.08;55.64
80424;BME280;69765;47.668;19.326;2023-07-22T08:05:17;98998.97;;;27.58;54.87
80424;BME280;69765;47.668;19.326;2023-07-22T08:08:21;98993.66;;;27.66;53.20
80424;BME280;69765;47.668;19.326;2023-07-22T08:11:23;99010.31;;;27.74;52.99
80424;BME280;69765;47.668;19.326;2023-07-22T08:14:25;98993.31;;;28.21;51.30
80424;BME280;69765;47.668;19.326;2023-07-22T08:17:28;99010.72;;;28.48;50.19
80424;BME280;69765;47.668;19.326;2023-07-22T08:20:30;99004.94;;;29.01;49.22
80424;BME280;69765;47.668;19.326;2023-07-22T08:23:33;99012.09;;;28.87;50.26
80424;BME280;69765;47.668;19.326;2023-07-22T08:26:36;99007.41;;;29.15;48.76
80424;BME280;69765;47.668;19.326;2023-07-22T08:29:38;99020.81;;;28.98;49.55
80424;BME280;69765;47.668;19.326;2023-07-22T08:32:41;99024.50;;;28.77;49.33
80424;BME280;69765;47.668;19.326;2023-07-22T08:35:43;99011.78;;;29.16;49.34
80424;BME280;69765;47.668;19.326;2023-07-22T08:38:45;99017.09;;;29.86;47.70
80424;BME280;69765;47.668;19.326;2023-07-22T08:41:48;99018.53;;;30.08;45.37
80424;BME280;69765;47.668;19.326;2023-07-22T08:44:56;99023.13;;;30.52;44.92
80424;BME280;69765;47.668;19.326;2023-07-22T08:48:05;99025.59;;;30.08;43.58
80424;BME280;69765;47.668;19.326;2023-07-22T08:51:18;99012.59;;;29.94;46.00
80424;BME280;69765;47.668;19.326;2023-07-22T08:54:21;99026.44;;;30.10;43.85
80424;BME280;69765;47.668;19.326;2023-07-22T08:57:27;99022.53;;;30.88;41.67
80424;BME280;69765;47.668;19.326;2023-07-22T09:00:32;99028.41;;;30.52;44.83
80424;BME280;69765;47.668;19.326;2023-07-22T09:03:35;99033.81;;;29.86;45.44
80424;BME280;69765;47.668;19.326;2023-07-22T09:06:39;99048.13;;;29.70;43.64
80424;BME280;69765;47.668;19.326;2023-07-22T09:09:41;99045.22;;;29.90;44.15
80424;BME280;69765;47.668;19.326;2023-07-22T09:12:45;99049.97;;;29.63;42.04
80424;BME280;69765;47.668;19.326;2023-07-22T09:15:48;99059.47;;;29.76;45.45
80424;BME280;69765;47.668;19.326;2023-07-22T09:18:50;99064.03;;;29.65;45.13
80424;BME280;69765;47.668;19.326;2023-07-22T09:21:56;99052.06;;;30.62;41.89
80424;BME280;69765;47.668;19.326;2023-07-22T09:25:21;99054.78;;;30.59;40.38
80424;BME280;69765;47.668;19.326;2023-07-22T09:28:24;99045.09;;;30.56;42.07
80424;BME280;69765;47.668;19.326;2023-07-22T09:31:27;99043.50;;;30.98;38.31
80424;BME280;69765;47.668;19.326;2023-07-22T09:34:54;99058.56;;;30.95;41.14
80424;BME280;69765;47.668;19.326;2023-07-22T09:37:56;99062.16;;;30.92;37.90
80424;BME280;69765;47.668;19.326;2023-07-22T09:41:00;99049.84;;;30.90;38.66
80424;BME280;69765;47.668;19.326;2023-07-22T09:44:03;99060.41;;;31.39;38.75
80424;BME280;69765;47.668;19.326;2023-07-22T09:47:06;99055.66;;;31.97;36.16
80424;BME280;69765;47.668;19.326;2023-07-22T09:50:14;99052.41;;;33.28;33.44
80424;BME280;69765;47.668;19.326;2023-07-22T09:53:18;99046.16;;;34.20;31.82
80424;BME280;69765;47.668;19.326;2023-07-22T09:56:20;99043.28;;;34.27;31.59
80424;BME280;69765;47.668;19.326;2023-07-22T09:59:23;99039.09;;;35.25;33.70
80424;BME280;69765;47.668;19.326;2023-07-22T10:02:26;99039.78;;;35.55;30.88
80424;BME280;69765;47.668;19.326;2023-07-22T10:05:28;99043.91;;;34.89;31.09
80424;BME280;69765;47.668;19.326;2023-07-22T10:08:34;99031.28;;;35.20;28.80
80424;BME280;69765;47.668;19.326;2023-07-22T10:11:40;99021.22;;;35.03;31.18
80424;BME280;69765;47.668;19.326;2023-07-22T10:14:44;99025.34;;;35.61;31.00
80424;BME280;69765;47.668;19.326;2023-07-22T10:17:48;99024.38;;;35.85;29.64
80424;BME280;69765;47.668;19.326;2023-07-22T10:20:51;99022.13;;;35.74;29.80
80424;BME280;69765;47.668;19.326;2023-07-22T10:23:54;99034.09;;;35.64;28.60
80424;BME280;69765;47.668;19.326;2023-07-22T10:26:57;99046.16;;;35.98;29.72
80424;BME280;69765;47.668;19.326;2023-07-22T10:30:00;99046.78;;;36.70;29.12
80424;BME280;69765;47.668;19.326;2023-07-22T10:33:03;99062.09;;;36.21;26.90
80424;BME280;69765;47.668;19.326;2023-07-22T10:36:06;99050.94;;;36.12;27.10
80424;BME280;69765;47.668;19.326;2023-07-22T10:39:09;99040.81;;;35.74;29.23
80424;BME280;69765;47.668;19.326;2023-07-22T10:42:24;99054.09;;;36.21;26.79
80424;BME280;69765;47.668;19.326;2023-07-22T10:45:31;99057.84;;;34.70;28.75
80424;BME280;69765;47.668;19.326;2023-07-22T10:48:36;99054.47;;;34.65;29.40
80424;BME280;69765;47.668;19.326;2023-07-22T10:51:39;99054.66;;;33.73;29.87
80424;BME280;69765;47.668;19.326;2023-07-22T10:54:42;99043.13;;;34.60;30.36
80424;BME280;69765;47.668;19.326;2023-07-22T10:57:53;99047.66;;;34.02;29.05
80424;BME280;69765;47.668;19.326;2023-07-22T11:00:56;99049.69;;;31.45;33.82
80424;BME280;69765;47.668;19.326;2023-07-22T11:07:15;99045.00;;;32.00;33.42
80424;BME280;69765;47.668;19.326;2023-07-22T11:10:31;99046.09;;;33.93;30.91
80424;BME280;69765;47.668;19.326;2023-07-22T11:13:38;99040.66;;;35.30;29.53
80424;BME280;69765;47.668;19.326;2023-07-22T11:16:50;99045.09;;;35.55;26.97
80424;BME280;69765;47.668;19.326;2023-07-22T11:19:55;99042.44;;;34.53;27.68
80424;BME280;69765;47.668;19.326;2023-07-22T11:23:00;99030.66;;;34.06;28.65
80424;BME280;69765;47.668;19.326;2023-07-22T11:26:05;99020.72;;;33.53;28.98
80424;BME280;69765;47.668;19.326;2023-07-22T11:29:08;99015.81;;;33.38;30.35
80424;BME280;69765;47.668;19.326;2023-07-22T11:32:18;99011.66;;;32.98;31.52
80424;BME280;69765;47.668;19.326;2023-07-22T11:35:23;99018.69;;;32.29;33.46
80424;BME280;69765;47.668;19.326;2023-07-22T11:38:25;99014.63;;;31.34;32.58
80424;BME280;69765;47.668;19.326;2023-07-22T11:41:29;99031.22;;;30.94;35.56
80424;BME280;69765;47.668;19.326;2023-07-22T11:44:31;99013.97;;;30.21;35.29
80424;BME280;69765;47.668;19.326;2023-07-22T11:47:33;99029.16;;;29.36;36.78
80424;BME280;69765;47.668;19.326;2023-07-22T11:50:36;99018.38;;;29.54;36.92
80424;BME280;69765;47.668;19.326;2023-07-22T11:53:38;99011.09;;;29.74;34.78
80424;BME280;69765;47.668;19.326;2023-07-22T11:56:40;99015.50;;;29.74;34.19
80424;BME280;69765;47.668;19.326;2023-07-22T11:59:56;99011.09;;;29.74;35.14
80424;BME280;69765;47.668;19.326;2023-07-22T12:03:05;99002.38;;;30.28;33.23
80424;BME280;69765;47.668;19.326;2023-07-22T12:06:09;98999.84;;;30.22;31.51
80424;BME280;69765;47.668;19.326;2023-07-22T12:09:12;98999.16;;;31.11;32.81
80424;BME280;69765;47.668;19.326;2023-07-22T12:12:14;98998.31;;;31.09;32.39
80424;BME280;69765;47.668;19.326;2023-07-22T12:15:21;98993.88;;;31.11;34.06
80424;BME280;69765;47.668;19.326;2023-07-22T12:18:26;99001.00;;;31.52;30.39
80424;BME280;69765;47.668;19.326;2023-07-22T12:21:29;98985.91;;;31.96;32.21
80424;BME280;69765;47.668;19.326;2023-07-22T12:24:31;98973.41;;;32.01;29.73
80424;BME280;69765;47.668;19.326;2023-07-22T12:27:34;98989.72;;;32.20;30.82
80424;BME280;69765;47.668;19.326;2023-07-22T12:30:37;98977.94;;;31.96;30.19
80424;BME280;69765;47.668;19.326;2023-07-22T12:33:39;98996.56;;;31.08;31.64
80424;BME280;69765;47.668;19.326;2023-07-22T12:36:41;98994.63;;;30.70;32.90
80424;BME280;69765;47.668;19.326;2023-07-22T12:39:44;98984.75;;;31.26;30.48
80424;BME280;69765;47.668;19.326;2023-07-22T12:42:46;98990.44;;;31.49;31.78
80424;BME280;69765;47.668;19.326;2023-07-22T12:45:49;98981.56;;;31.52;31.79
80424;BME280;69765;47.668;19.326;2023-07-22T12:48:52;98979.44;;;31.26;32.33
80424;BME280;69765;47.668;19.326;2023-07-22T12:51:54;98982.94;;;31.28;31.06
80424;BME280;69765;47.668;19.326;2023-07-22T12:54:56;98967.91;;;30.36;32.82
80424;BME280;69765;47.668;19.326;2023-07-22T12:57:59;98984.41;;;29.93;33.88
80424;BME280;69765;47.668;19.326;2023-07-22T13:01:02;98991.09;;;29.57;34.54
80424;BME280;69765;47.668;19.326;2023-07-22T13:04:04;98974.69;;;29.30;35.39
80424;BME280;69765;47.668;19.326;2023-07-22T13:07:06;98977.25;;;29.36;34.36
80424;BME280;69765;47.668;19.326;2023-07-22T13:10:18;98971.44;;;29.08;35.37
80424;BME280;69765;47.668;19.326;2023-07-22T13:13:27;98974.59;;;28.58;34.28
80424;BME280;69765;47.668;19.326;2023-07-22T13:16:29;98972.69;;;28.72;35.75
80424;BME280;69765;47.668;19.326;2023-07-22T13:19:34;98974.59;;;28.58;35.61
80424;BME280;69765;47.668;19.326;2023-07-22T13:22:37;98971.34;;;28.25;34.72
80424;BME280;69765;47.668;19.326;2023-07-22T13:25:40;98975.94;;;27.97;36.99
80424;BME280;69765;47.668;19.326;2023-07-22T13:28:42;98965.25;;;28.18;38.46
80424;BME280;69765;47.668;19.326;2023-07-22T13:31:44;98966.81;;;28.44;36.98
80424;BME280;69765;47.668;19.326;2023-07-22T13:34:47;98958.13;;;28.26;36.03
80424;BME280;69765;47.668;19.326;2023-07-22T13:37:49;98969.53;;;28.30;35.44
80424;BME280;69765;47.668;19.326;2023-07-22T13:40:52;98960.88;;;28.19;36.60
80424;BME280;69765;47.668;19.326;2023-07-22T13:43:54;98953.16;;;27.93;35.90
80424;BME280;69765;47.668;19.326;2023-07-22T13:46:56;98954.00;;;27.96;35.57
80424;BME280;69765;47.668;19.326;2023-07-22T13:49:59;98965.31;;;28.08;37.39
80424;BME280;69765;47.668;19.326;2023-07-22T13:53:01;98957.66;;;27.75;38.96
80424;BME280;69765;47.668;19.326;2023-07-22T13:56:04;98966.25;;;28.05;36.51
80424;BME280;69765;47.668;19.326;2023-07-22T13:59:06;98957.53;;;27.95;37.91
80424;BME280;69765;47.668;19.326;2023-07-22T14:02:09;98962.09;;;27.64;35.31
80424;BME280;69765;47.668;19.326;2023-07-22T14:05:13;98962.94;;;27.69;36.69
80424;BME280;69765;47.668;19.326;2023-07-22T14:08:15;98965.50;;;27.86;37.13
80424;BME280;69765;47.668;19.326;2023-07-22T14:11:18;98955.88;;;27.82;34.92
80424;BME280;69765;47.668;19.326;2023-07-22T14:14:21;98956.78;;;27.70;34.93
80424;BME280;69765;47.668;19.326;2023-07-22T14:17:30;98959.50;;;27.57;36.45
80424;BME280;69765;47.668;19.326;2023-07-22T14:20:35;98955.09;;;27.63;36.99
80424;BME280;69765;47.668;19.326;2023-07-22T14:23:38;98962.09;;;27.72;36.67
80424;BME280;69765;47.668;19.326;2023-07-22T14:26:40;98962.03;;;27.75;37.65
80424;BME280;69765;47.668;19.326;2023-07-22T14:29:42;98960.31;;;27.66;35.56
80424;BME280;69765;47.668;19.326;2023-07-22T14:32:44;98944.56;;;27.63;34.38
80424;BME280;69765;47.668;19.326;2023-07-22T14:35:47;98950.78;;;27.47;37.02
80424;BME280;69765;47.668;19.326;2023-07-22T14:38:49;98964.72;;;27.67;36.31
80424;BME280;69765;47.668;19.326;2023-07-22T14:41:52;98951.69;;;27.38;34.79
80424;BME280;69765;47.668;19.326;2023-07-22T14:44:54;98943.88;;;27.23;35.91
80424;BME280;69765;47.668;19.326;2023-07-22T14:47:56;98942.13;;;27.25;35.56
80424;BME280;69765;47.668;19.326;2023-07-22T14:50:59;98949.94;;;27.40;35.72
80424;BME280;69765;47.668;19.326;2023-07-22T14:54:01;98944.59;;;27.51;33.27
80424;BME280;69765;47.668;19.326;2023-07-22T14:57:04;98942.78;;;27.67;33.70
80424;BME280;69765;47.668;19.326;2023-07-22T15:00:06;98942.94;;;27.39;34.15
80424;BME280;69765;47.668;19.326;2023-07-22T15:03:09;98949.06;;;27.37;32.65
80424;BME280;69765;47.668;19.326;2023-07-22T15:06:12;98936.91;;;27.10;35.14
80424;BME280;69765;47.668;19.326;2023-07-22T15:09:15;98941.28;;;27.08;33.96
80424;BME280;69765;47.668;19.326;2023-07-22T15:12:18;98941.31;;;26.98;33.66
80424;BME280;69765;47.668;19.326;2023-07-22T15:15:20;98951.81;;;27.15;33.26
80424;BME280;69765;47.668;19.326;2023-07-22T15:18:23;98951.81;;;27.17;33.13
80424;BME280;69765;47.668;19.326;2023-07-22T15:21:25;98943.91;;;27.21;34.53
80424;BME280;69765;47.668;19.326;2023-07-22T15:24:29;98932.47;;;27.27;34.34
80424;BME280;69765;47.668;19.326;2023-07-22T15:27:31;98932.44;;;27.32;34.61
80424;BME280;69765;47.668;19.326;2023-07-22T15:30:33;98935.97;;;27.29;32.83
80424;BME280;69765;47.668;19.326;2023-07-22T15:33:36;98935.19;;;27.12;33.93
80424;BME280;69765;47.668;19.326;2023-07-22T15:36:38;98932.59;;;26.92;33.64
80424;BME280;69765;47.668;19.326;2023-07-22T15:39:40;98934.38;;;26.81;33.64
80424;BME280;69765;47.668;19.326;2023-07-22T15:42:43;98944.03;;;26.71;32.85
80424;BME280;69765;47.668;19.326;2023-07-22T15:45:45;98947.56;;;26.62;33.38
80424;BME280;69765;47.668;19.326;2023-07-22T15:48:48;98945.84;;;26.43;34.70
80424;BME280;69765;47.668;19.326;2023-07-22T15:51:50;98945.81;;;26.37;35.05
80424;BME280;69765;47.668;19.326;2023-07-22T15:54:52;98938.81;;;26.53;35.55
80424;BME280;69765;47.668;19.326;2023-07-22T15:57:55;98946.69;;;26.57;33.64